Portada
METAR-TAF:

METAR-TAF

Aeroports :

Port Moresby, Papua Nova Guinea

latitud: 09-26S, longitud: 147-13E, altitud: 38 m

Observació

L'informe es va fer fa 28 minuts, a les 00:00 UTC
Vent 2 kt amb direcció variable
Temperatura 28°C
Humitat 89%
Pressió 1010 hPa
Visibilitat 10 km o més
Escasses núvols a una alçada de 2000 ft
Núvols disperses a una alçada de 3500 ft
Núvols disperses a una alçada de 4500 ft

METAR: AYPY 020000Z VRB02KT 9999 FEW020 SCT035 SCT045 28/26 Q1010

Hora: 10:28 (00:28 UTC)

Pronòstic

L'informe es va fer fa 2 hores i 22 minuts, a les 22:06 UTC
Pronòstic vàlid del 02 a les 00 UTC al 02 a les 24 UTC
Vent 12 kt del Sud-Est
Visibilitat: 4000 m
Núvols disperses a una alçada de 1800 ft
Núvols disperses a una alçada de 4000 ft
Cel ennuvolat a una alçada de 12000 ft
Cel ennuvolat a una alçada de 800 ft
xàfecs de pluja, xàfecs de pluja

TAF: AYPY 012206Z 0200/0224 14012KT 9999 -SHRA SCT018 SCT040 BKN120 INTER 0205/0208 4000 +SHRA BKN008

Observacions i pronòstics meteorològics de més de 4000 aeroports (METAR i TAF).

Les estacions disponibles són els punts grocs i vermells al mapa.

Posi el ratolí al punt desitjat per veure el nom de l'estació.

Feu clic per veure les observacions i els pronòstics meteorològics.

Per canviar el mapa: feu clic els botons verds amb una creu de color negre per apropar; al botó verd amb un guió per allunyar la imatge; o en les fletxes verdes per a mapes adjacents.


METAR-TAF: